Time;durP1;ratioP1;P1;durP2;ratioP2;P2;SDS_P1;SDS_P2;PMS_P1;PMS_P2;Temp;Humidity;BMP_temperature;BMP_pressure;BME280_temperature;BME280_humidity;BME280_pressure;Samples;Min_cycle;Max_cycle;Signal;HPM_P1;HPM_P2
2023/07/16 00:01:52;;;;;;;7.63;1.85;;;17.40;99.90;;;;;;4216297;28;20028;-84
2023/07/16 00:03:53;;;;;;;10.75;2.90;;;17.40;99.90;;;;;;4214548;28;20051;-84
2023/07/16 00:05:54;;;;;;;9.20;2.15;;;17.30;99.90;;;;;;4216282;28;20119;-84
2023/07/16 00:07:54;;;;;;;10.13;2.25;;;17.30;99.90;;;;;;4230910;28;20087;-84
2023/07/16 00:09:55;;;;;;;10.48;2.10;;;17.30;99.90;;;;;;4216330;28;20152;-85
2023/07/16 00:11:56;;;;;;;7.93;2.78;;;17.30;99.90;;;;;;4215207;28;20040;-84
2023/07/16 00:13:57;;;;;;;7.35;2.60;;;17.30;99.90;;;;;;4216003;28;20047;-84
2023/07/16 00:15:58;;;;;;;9.32;2.00;;;17.20;99.90;;;;;;4216344;28;20118;-85
2023/07/16 00:18:00;;;;;;;10.63;2.50;;;17.20;99.90;;;;;;4215838;28;20119;-84
2023/07/16 00:20:01;;;;;;;8.57;3.22;;;17.20;99.90;;;;;;4215166;28;20040;-84
2023/07/16 00:22:02;;;;;;;9.15;2.22;;;17.20;99.90;;;;;;4214896;28;20445;-84
2023/07/16 00:24:03;;;;;;;7.47;3.47;;;17.20;99.90;;;;;;4215506;28;20067;-84
2023/07/16 00:26:04;;;;;;;9.05;2.78;;;17.10;99.90;;;;;;4215167;28;20044;-84
2023/07/16 00:28:06;;;;;;;10.60;1.55;;;17.10;99.90;;;;;;4231118;28;20221;-84
2023/07/16 00:30:08;;;;;;;7.55;2.05;;;17.10;99.90;;;;;;4215302;28;20150;-85
2023/07/16 00:32:11;;;;;;;8.45;2.10;;;17.10;99.90;;;;;;4214357;28;20044;-84
2023/07/16 00:34:13;;;;;;;5.80;2.40;;;17.10;99.90;;;;;;4215070;28;20503;-85
2023/07/16 00:36:13;;;;;;;9.23;2.53;;;17.10;99.90;;;;;;4213673;28;20488;-84
2023/07/16 00:38:14;;;;;;;13.52;2.97;;;17.10;99.90;;;;;;4214978;28;20040;-84
2023/07/16 00:40:15;;;;;;;7.63;2.13;;;17.00;99.90;;;;;;4215161;28;20085;-84
2023/07/16 00:42:15;;;;;;;8.05;1.98;;;17.10;99.90;;;;;;4215993;28;20520;-84
2023/07/16 00:44:16;;;;;;;7.45;2.10;;;17.10;99.90;;;;;;4214476;28;20074;-84
2023/07/16 00:46:17;;;;;;;10.02;2.38;;;17.00;99.90;;;;;;4214837;28;20044;-84
2023/07/16 00:48:19;;;;;;;11.13;2.83;;;17.00;99.90;;;;;;4215013;28;20099;-84
2023/07/16 00:50:22;;;;;;;11.70;3.25;;;17.00;99.90;;;;;;4213803;28;20411;-84
2023/07/16 00:52:23;;;;;;;7.53;3.20;;;17.00;99.90;;;;;;4214095;28;20119;-84
2023/07/16 00:54:24;;;;;;;8.93;3.30;;;16.90;99.90;;;;;;4214651;28;20093;-84
2023/07/16 00:56:25;;;;;;;6.97;2.80;;;16.90;99.90;;;;;;4214822;28;20048;-84
2023/07/16 00:58:26;;;;;;;9.18;3.78;;;16.90;99.90;;;;;;4214680;28;20047;-84
2023/07/16 01:00:26;;;;;;;14.90;5.97;;;16.90;99.90;;;;;;4215349;28;20036;-85
2023/07/16 01:02:27;;;;;;;17.17;6.88;;;16.90;99.90;;;;;;4214822;28;20486;-84
2023/07/16 01:04:28;;;;;;;11.02;3.90;;;16.90;99.90;;;;;;4214732;28;20070;-84
2023/07/16 01:06:34;;;;;;;10.55;2.63;;;16.90;99.90;;;;;;4214566;28;20040;-84
2023/07/16 01:08:49;;;;;;;7.93;1.70;;;16.90;99.90;;;;;;4214880;28;20087;-85
2023/07/16 01:10:50;;;;;;;8.85;2.17;;;16.90;99.90;;;;;;4217398;28;20047;-84
2023/07/16 01:12:53;;;;;;;9.18;1.73;;;16.90;99.90;;;;;;4214807;28;20051;-85
2023/07/16 01:14:56;;;;;;;9.07;2.17;;;16.90;99.90;;;;;;4215025;28;20051;-84
2023/07/16 01:16:58;;;;;;;7.53;2.35;;;16.90;99.90;;;;;;4214967;28;20054;-84
2023/07/16 01:18:59;;;;;;;6.75;1.95;;;17.00;99.90;;;;;;4214717;28;20044;-84
2023/07/16 01:21:00;;;;;;;11.00;2.22;;;17.00;99.90;;;;;;4214418;28;20036;-85
2023/07/16 01:23:35;;;;;;;7.53;2.28;;;17.00;99.90;;;;;;4214535;28;20056;-84
2023/07/16 01:25:36;;;;;;;10.07;2.58;;;17.00;99.90;;;;;;4214556;28;20048;-84
2023/07/16 01:27:44;;;;;;;8.93;2.10;;;17.00;99.90;;;;;;4215589;28;20051;-85
2023/07/16 01:29:48;;;;;;;9.88;3.35;;;17.00;99.90;;;;;;4215298;28;20404;-84
2023/07/16 01:31:51;;;;;;;9.95;1.90;;;16.80;99.90;;;;;;4214932;28;20044;-84
2023/07/16 01:33:54;;;;;;;6.63;1.92;;;17.00;99.90;;;;;;4214614;28;20071;-84
2023/07/16 01:35:55;;;;;;;8.18;2.08;;;17.00;99.90;;;;;;4214095;28;20056;-84
2023/07/16 01:37:56;;;;;;;5.43;1.63;;;17.00;99.90;;;;;;4215117;28;20389;-84
2023/07/16 01:39:57;;;;;;;9.63;2.72;;;17.00;99.90;;;;;;4212994;28;20044;-85
2023/07/16 01:41:58;;;;;;;8.55;3.00;;;17.00;99.90;;;;;;4214306;28;20036;-84
2023/07/16 01:43:59;;;;;;;11.75;2.83;;;17.00;99.90;;;;;;4214874;28;20093;-84
2023/07/16 01:46:00;;;;;;;11.82;2.80;;;17.10;99.90;;;;;;4214924;28;20051;-84
2023/07/16 01:48:27;;;;;;;9.77;2.97;;;17.00;99.90;;;;;;4214844;28;20043;-85
2023/07/16 01:50:29;;;;;;;11.65;2.13;;;17.00;99.90;;;;;;4214394;28;20056;-85
2023/07/16 01:52:30;;;;;;;11.00;1.63;;;17.00;99.90;;;;;;4214919;28;20088;-85
2023/07/16 01:54:30;;;;;;;6.75;2.58;;;17.00;99.90;;;;;;4214456;28;20087;-84
2023/07/16 01:56:33;;;;;;;7.88;2.05;;;17.00;99.90;;;;;;4213677;28;20051;-84
2023/07/16 01:58:33;;;;;;;6.18;2.40;;;16.90;99.90;;;;;;4214337;28;20181;-84
2023/07/16 02:00:34;;;;;;;12.88;2.10;;;17.00;99.90;;;;;;4214532;28;20036;-84
2023/07/16 02:02:35;;;;;;;9.48;2.55;;;17.00;99.90;;;;;;4215100;28;20048;-85
2023/07/16 02:04:35;;;;;;;3.75;2.03;;;17.00;99.90;;;;;;4216382;28;20127;-84
2023/07/16 02:06:37;;;;;;;5.88;1.42;;;17.00;99.90;;;;;;4217149;28;20400;-84
2023/07/16 02:08:38;;;;;;;6.07;1.67;;;17.00;99.90;;;;;;4217175;28;20127;-84
2023/07/16 02:10:39;;;;;;;8.48;1.58;;;17.00;99.90;;;;;;4217287;28;20036;-84
2023/07/16 02:12:41;;;;;;;7.43;1.52;;;17.00;99.90;;;;;;4216617;28;20059;-84
2023/07/16 02:14:42;;;;;;;6.00;1.63;;;17.00;99.90;;;;;;4217448;28;20127;-85
2023/07/16 02:16:43;;;;;;;5.07;1.30;;;17.00;99.90;;;;;;4216818;28;20484;-84
2023/07/16 02:18:43;;;;;;;5.25;1.40;;;17.00;99.90;;;;;;4217506;28;20441;-84
2023/07/16 02:20:44;;;;;;;10.43;1.30;;;16.90;99.90;;;;;;4217462;28;20498;-84
2023/07/16 02:22:45;;;;;;;7.50;1.83;;;16.90;99.90;;;;;;4218201;28;20087;-84
2023/07/16 02:24:45;;;;;;;7.50;2.30;;;16.90;99.90;;;;;;4217245;28;20048;-84
2023/07/16 02:26:46;;;;;;;5.65;1.60;;;16.90;99.90;;;;;;4217766;28;20067;-84
2023/07/16 02:28:47;;;;;;;6.95;1.40;;;16.80;99.90;;;;;;4217087;28;20051;-85
2023/07/16 02:30:49;;;;;;;9.60;2.00;;;16.80;99.90;;;;;;4216806;28;20036;-84
2023/07/16 02:32:50;;;;;;;6.53;2.17;;;16.80;99.90;;;;;;4216992;28;20047;-85
2023/07/16 02:34:51;;;;;;;7.25;1.95;;;16.80;99.90;;;;;;4216235;28;20127;-85
2023/07/16 02:36:51;;;;;;;8.23;2.03;;;16.80;99.90;;;;;;4217232;28;20127;-85
2023/07/16 02:38:52;;;;;;;5.07;1.70;;;16.70;99.90;;;;;;4217328;28;20087;-85
2023/07/16 02:40:54;;;;;;;7.00;1.92;;;16.80;99.90;;;;;;4216333;28;20040;-85
2023/07/16 02:42:54;;;;;;;11.52;2.40;;;16.80;99.90;;;;;;4215319;28;20469;-85
2023/07/16 02:44:55;;;;;;;9.07;2.47;;;16.80;99.90;;;;;;4216631;28;20040;-85
2023/07/16 02:46:56;;;;;;;8.70;2.25;;;16.70;99.90;;;;;;4217107;28;20044;-85
2023/07/16 02:48:58;;;;;;;9.20;2.05;;;16.80;99.90;;;;;;4216614;28;20483;-85
2023/07/16 02:50:58;;;;;;;6.90;2.00;;;16.80;99.90;;;;;;4216971;28;20036;-85
2023/07/16 02:52:59;;;;;;;6.15;2.03;;;16.80;99.90;;;;;;4217723;28;20047;-85
2023/07/16 02:54:59;;;;;;;9.13;2.67;;;16.80;99.90;;;;;;4216564;28;20051;-85
2023/07/16 02:57:00;;;;;;;5.25;1.90;;;16.80;99.90;;;;;;4215693;28;20048;-85
2023/07/16 02:59:01;;;;;;;10.70;2.78;;;16.70;99.90;;;;;;4216986;28;20039;-85
2023/07/16 03:01:02;;;;;;;7.72;2.25;;;16.80;99.90;;;;;;4216580;28;20044;-85
2023/07/16 03:03:02;;;;;;;6.38;2.45;;;16.90;99.90;;;;;;4217311;28;20115;-85
2023/07/16 03:05:03;;;;;;;8.40;2.78;;;16.90;99.90;;;;;;4216487;28;20084;-85
2023/07/16 03:07:05;;;;;;;7.78;2.38;;;16.90;99.90;;;;;;4217190;28;20044;-85
2023/07/16 03:09:05;;;;;;;9.50;2.28;;;16.90;99.90;;;;;;4216502;28;20063;-85
2023/07/16 03:11:06;;;;;;;8.45;2.20;;;16.80;99.90;;;;;;4215806;28;20484;-85
2023/07/16 03:13:07;;;;;;;5.95;2.67;;;16.80;99.90;;;;;;4216022;28;20485;-85
2023/07/16 03:15:08;;;;;;;6.22;2.50;;;16.90;99.90;;;;;;4216385;28;20079;-85
2023/07/16 03:17:09;;;;;;;8.10;3.38;;;16.90;99.90;;;;;;4216918;28;20369;-85
2023/07/16 03:19:09;;;;;;;9.35;2.88;;;16.90;99.90;;;;;;4215125;28;20097;-85
2023/07/16 03:21:12;;;;;;;15.50;3.08;;;16.90;99.90;;;;;;4232569;28;20135;-84
2023/07/16 03:23:13;;;;;;;7.70;2.50;;;16.90;99.90;;;;;;4216418;28;20504;-85
2023/07/16 03:25:14;;;;;;;12.38;2.47;;;16.80;99.90;;;;;;4215347;28;20040;-85
2023/07/16 03:27:14;;;;;;;12.82;2.45;;;16.80;99.90;;;;;;4215961;28;20606;-85
2023/07/16 03:29:15;;;;;;;13.18;3.47;;;16.80;99.90;;;;;;4215908;28;20048;-83
2023/07/16 03:31:16;;;;;;;7.57;2.50;;;16.80;99.90;;;;;;4215586;28;20046;-84
2023/07/16 03:33:16;;;;;;;9.18;2.30;;;16.80;99.90;;;;;;4216225;28;20066;-84
2023/07/16 03:35:17;;;;;;;7.10;2.50;;;16.70;99.90;;;;;;4215200;28;20071;-85
2023/07/16 03:37:18;;;;;;;9.27;2.30;;;16.80;99.90;;;;;;4215915;28;20044;-85
2023/07/16 03:39:20;;;;;;;12.25;2.80;;;16.80;99.90;;;;;;4216431;28;20162;-85
2023/07/16 03:41:21;;;;;;;9.98;2.13;;;16.80;99.90;;;;;;4215956;28;20040;-84
2023/07/16 03:43:22;;;;;;;9.93;3.40;;;16.80;99.90;;;;;;4216343;28;20093;-84
2023/07/16 03:45:24;;;;;;;17.42;3.35;;;16.80;99.90;;;;;;4198376;28;20539;-84
2023/07/16 03:47:24;;;;;;;11.50;3.15;;;16.80;99.90;;;;;;4216368;28;20488;-84
2023/07/16 03:49:25;;;;;;;7.18;2.55;;;16.80;99.90;;;;;;4216108;28;20051;-84
2023/07/16 03:51:26;;;;;;;8.95;2.53;;;16.80;99.90;;;;;;4214771;28;20036;-83
2023/07/16 03:53:26;;;;;;;8.68;2.88;;;16.80;99.90;;;;;;4216378;28;20051;-84
2023/07/16 03:55:27;;;;;;;7.22;2.65;;;16.80;99.90;;;;;;4215572;28;20047;-83
2023/07/16 03:57:29;;;;;;;6.63;2.55;;;16.80;99.90;;;;;;4216130;28;20059;-84
2023/07/16 03:59:29;;;;;;;11.05;2.60;;;16.80;99.90;;;;;;4215704;28;20075;-84
2023/07/16 04:01:30;;;;;;;9.75;2.28;;;16.80;99.90;;;;;;4215821;28;20047;-84
2023/07/16 04:03:31;;;;;;;11.43;2.70;;;16.80;99.90;;;;;;4214865;28;20480;-84
2023/07/16 04:05:31;;;;;;;11.65;2.70;;;16.70;99.90;;;;;;4213883;28;20106;-84
2023/07/16 04:07:32;;;;;;;12.05;2.90;;;16.80;99.90;;;;;;4215430;28;20047;-84
2023/07/16 04:09:33;;;;;;;8.63;3.67;;;16.80;99.90;;;;;;4216267;28;20048;-84
2023/07/16 04:11:34;;;;;;;9.02;3.10;;;16.70;99.90;;;;;;4216323;28;20072;-84
2023/07/16 04:13:35;;;;;;;7.35;2.85;;;16.80;99.90;;;;;;4215941;28;20514;-84
2023/07/16 04:15:36;;;;;;;12.45;3.50;;;16.70;99.90;;;;;;4216112;28;20059;-84
2023/07/16 04:17:37;;;;;;;7.22;2.47;;;16.80;99.90;;;;;;4215505;28;20105;-83
2023/07/16 04:19:38;;;;;;;11.45;3.35;;;16.70;99.90;;;;;;4216013;28;20040;-85
2023/07/16 04:21:39;;;;;;;11.10;3.22;;;16.80;99.90;;;;;;4215316;28;20044;-84
2023/07/16 04:23:40;;;;;;;7.90;3.45;;;16.80;99.90;;;;;;4215546;28;20031;-84
2023/07/16 04:25:40;;;;;;;8.00;2.55;;;16.80;99.90;;;;;;4215147;28;20480;-85
2023/07/16 04:27:43;;;;;;;7.80;2.88;;;16.80;99.90;;;;;;4215381;28;20079;-84
2023/07/16 04:29:44;;;;;;;8.15;2.60;;;16.80;99.90;;;;;;4214817;28;20109;-84
2023/07/16 04:31:44;;;;;;;8.57;3.17;;;16.80;99.90;;;;;;4214620;28;20078;-84
2023/07/16 04:33:45;;;;;;;8.60;3.42;;;16.80;99.90;;;;;;4215632;28;20058;-84
2023/07/16 04:35:46;;;;;;;9.88;3.40;;;16.80;99.90;;;;;;4215508;28;20036;-84
2023/07/16 04:37:46;;;;;;;11.02;3.10;;;16.80;99.90;;;;;;4215548;28;20040;-84
2023/07/16 04:39:47;;;;;;;12.07;3.33;;;16.90;99.90;;;;;;4215419;28;20044;-84
2023/07/16 04:41:48;;;;;;;10.65;3.33;;;16.90;99.90;;;;;;4215737;28;20115;-84
2023/07/16 04:43:49;;;;;;;9.13;3.08;;;16.90;99.90;;;;;;4215340;28;20441;-85
2023/07/16 04:45:49;;;;;;;11.02;2.65;;;16.90;99.90;;;;;;4215080;28;20051;-84
2023/07/16 04:47:50;;;;;;;12.85;3.15;;;16.90;99.90;;;;;;4214872;28;20119;-84
2023/07/16 04:49:51;;;;;;;8.80;2.90;;;16.90;99.90;;;;;;4216130;28;20048;-85
2023/07/16 04:51:51;;;;;;;11.10;3.47;;;16.90;99.90;;;;;;4215372;28;20436;-85
2023/07/16 04:53:52;;;;;;;12.00;3.17;;;16.90;99.90;;;;;;4215157;28;20059;-85
2023/07/16 04:55:53;;;;;;;12.95;4.10;;;16.90;99.90;;;;;;4215351;28;20066;-85
2023/07/16 04:57:53;;;;;;;12.98;3.00;;;17.00;99.90;;;;;;4214687;28;20100;-83
2023/07/16 04:59:54;;;;;;;11.00;3.80;;;17.00;99.90;;;;;;4215006;28;20395;-85
2023/07/16 05:01:55;;;;;;;9.20;3.15;;;17.00;99.90;;;;;;4215389;28;20040;-84
2023/07/16 05:03:55;;;;;;;10.57;3.10;;;17.10;99.90;;;;;;4216426;28;20535;-85
2023/07/16 05:05:56;;;;;;;9.27;3.20;;;17.10;99.90;;;;;;4215388;28;20124;-84
2023/07/16 05:07:57;;;;;;;11.88;4.00;;;17.10;99.90;;;;;;4214740;28;20618;-85
2023/07/16 05:09:58;;;;;;;12.85;3.60;;;17.20;99.90;;;;;;4215971;28;20046;-84
2023/07/16 05:11:59;;;;;;;12.48;3.95;;;17.20;99.90;;;;;;4215028;28;20044;-84
2023/07/16 05:14:00;;;;;;;11.60;3.20;;;17.30;99.90;;;;;;4215577;28;20050;-84
2023/07/16 05:16:01;;;;;;;12.73;3.58;;;17.30;99.90;;;;;;4215581;28;20075;-84
2023/07/16 05:18:02;;;;;;;10.23;3.28;;;17.40;99.90;;;;;;4215912;28;20381;-85
2023/07/16 05:20:06;;;;;;;15.43;3.17;;;17.50;99.90;;;;;;4214613;28;20047;-84
2023/07/16 05:22:06;;;;;;;12.35;2.65;;;17.50;99.90;;;;;;4222159;28;20419;-84
2023/07/16 05:24:07;;;;;;;14.13;3.38;;;17.50;99.90;;;;;;4227268;28;20048;-84
2023/07/16 05:26:08;;;;;;;28.65;4.03;;;17.50;99.90;;;;;;4225448;28;20059;-84
2023/07/16 05:28:08;;;;;;;13.48;3.97;;;17.50;99.90;;;;;;4242846;28;20054;-85
2023/07/16 05:30:09;;;;;;;5.95;3.55;;;17.60;99.90;;;;;;4226620;28;20052;-84
2023/07/16 05:32:10;;;;;;;10.48;3.90;;;17.60;99.90;;;;;;4226274;28;20408;-84
2023/07/16 05:34:11;;;;;;;8.25;2.88;;;;;;;;;;4225905;28;20067;-84
2023/07/16 05:36:12;;;;;;;9.25;2.70;;;;;;;;;;4226153;28;20047;-84
2023/07/16 05:38:13;;;;;;;6.82;2.55;;;;;;;;;;4227449;28;20043;-84
2023/07/16 05:40:14;;;;;;;14.43;2.55;;;;;;;;;;4228556;28;20073;-85
2023/07/16 05:42:15;;;;;;;8.45;3.03;;;;;;;;;;4229002;28;20052;-84
2023/07/16 05:44:16;;;;;;;9.98;3.08;;;;;;;;;;4234261;28;20046;-84
2023/07/16 05:46:17;;;;;;;13.10;3.15;;;;;;;;;;4238099;28;20032;-84
2023/07/16 05:48:18;;;;;;;10.10;2.78;;;;;;;;;;4238144;28;20051;-84
2023/07/16 05:50:20;;;;;;;6.25;2.40;;;;;;;;;;4237518;28;20028;-84
2023/07/16 05:52:22;;;;;;;9.13;2.50;;;;;;;;;;4236759;28;20027;-84
2023/07/16 05:54:23;;;;;;;11.23;2.63;;;;;;;;;;4237255;28;20121;-84
2023/07/16 05:56:24;;;;;;;5.53;2.20;;;;;;;;;;4237631;28;20124;-84
2023/07/16 05:58:25;;;;;;;10.00;2.78;;;;;;;;;;4237107;28;20052;-85
2023/07/16 06:00:26;;;;;;;10.20;3.53;;;;;;;;;;4236935;28;20050;-84
2023/07/16 06:02:27;;;;;;;8.23;2.75;;;;;;;;;;4225549;28;20048;-84
2023/07/16 06:04:29;;;;;;;8.75;3.70;;;;;;;;;;4218454;28;20472;-84
2023/07/16 06:06:32;;;;;;;13.75;3.38;;;;;;;;;;4229962;28;20047;-84
2023/07/16 06:08:33;;;;;;;12.27;1.98;;;;;;;;;;4235552;28;20020;-84
2023/07/16 06:10:35;;;;;;;9.80;2.35;;;;;;;;;;4219418;28;20040;-84
2023/07/16 06:12:36;;;;;;;8.88;2.33;;;;;;;;;;4217843;28;20475;-84
2023/07/16 06:14:37;;;;;;;6.50;2.47;;;;;;;;;;4218315;28;20059;-85
2023/07/16 06:16:38;;;;;;;11.02;2.63;;;;;;;;;;4217544;28;20048;-85
2023/07/16 06:18:39;;;;;;;11.10;2.70;;;;;;;;;;4217915;28;20123;-84
2023/07/16 06:20:43;;;;;;;8.02;2.95;;;;;;;;;;4216907;28;20044;-84
2023/07/16 06:22:44;;;;;;;7.18;3.35;;;;;;;;;;4217080;28;20040;-84
2023/07/16 06:24:45;;;;;;;8.10;2.60;;;;;;;;;;4217505;28;20054;-84
2023/07/16 06:26:47;;;;;;;10.43;2.97;;;;;;;;;;4217310;28;20043;-84
2023/07/16 06:28:51;;;;;;;9.85;2.80;;;;;;;;;;4217493;28;20052;-85
2023/07/16 06:30:52;;;;;;;15.90;4.07;;;;;;;;;;4217818;28;20136;-84
2023/07/16 06:32:53;;;;;;;12.45;2.28;;;;;;;;;;4218159;28;20051;-84
2023/07/16 06:34:54;;;;;;;11.57;3.00;;;;;;;;;;4217410;28;20117;-84
2023/07/16 06:36:55;;;;;;;5.05;2.63;;;;;;;;;;4217459;28;20079;-84
2023/07/16 06:38:56;;;;;;;9.50;2.55;;;;;;;;;;4216859;28;20039;-84
2023/07/16 06:40:57;;;;;;;9.35;2.95;;;;;;;;;;4217379;28;20636;-84
2023/07/16 06:42:58;;;;;;;9.32;2.95;;;;;;;;;;4218072;28;20469;-84
2023/07/16 06:44:59;;;;;;;10.25;2.50;;;;;;;;;;4217589;28;20044;-84
2023/07/16 06:47:01;;;;;;;8.45;2.47;;;;;;;;;;4217576;28;20044;-84
2023/07/16 06:49:02;;;;;;;6.75;2.50;;;;;;;;;;4215288;28;20044;-84
2023/07/16 06:51:04;;;;;;;11.05;2.67;;;17.60;99.90;;;;;;4216931;28;20036;-84
2023/07/16 06:53:06;;;;;;;9.43;3.08;;;18.40;99.90;;;;;;4216843;28;20073;-84
2023/07/16 06:55:07;;;;;;;6.68;2.45;;;18.40;99.90;;;;;;4217419;28;20070;-84
2023/07/16 06:57:08;;;;;;;7.10;2.92;;;18.40;99.90;;;;;;4216707;28;20061;-84
2023/07/16 06:59:09;;;;;;;9.80;2.88;;;;;;;;;;4217183;28;20048;-84
2023/07/16 07:01:10;;;;;;;9.40;2.90;;;;;;;;;;4216556;28;20040;-83
2023/07/16 07:03:11;;;;;;;8.98;2.97;;;;;;;;;;4216946;28;20048;-84
2023/07/16 07:05:12;;;;;;;14.52;3.53;;;;;;;;;;4216502;28;20040;-84
2023/07/16 07:07:14;;;;;;;7.88;2.60;;;;;;;;;;4217005;28;20054;-84
2023/07/16 07:09:15;;;;;;;7.75;2.58;;;18.50;99.90;;;;;;4216211;28;20044;-84
2023/07/16 07:11:17;;;;;;;5.18;2.67;;;18.50;99.90;;;;;;4216530;28;20503;-84
2023/07/16 07:13:17;;;;;;;9.18;3.83;;;18.50;99.90;;;;;;4216731;28;20105;-84
2023/07/16 07:15:19;;;;;;;6.78;3.40;;;;;;;;;;4216707;28;20036;-84
2023/07/16 07:17:19;;;;;;;6.82;3.22;;;18.70;99.90;;;;;;4216434;28;20048;-84
2023/07/16 07:19:21;;;;;;;9.60;2.78;;;18.80;99.90;;;;;;4216490;28;20044;-84
2023/07/16 07:21:22;;;;;;;10.55;3.55;;;18.90;99.90;;;;;;4215634;28;20044;-84
2023/07/16 07:23:23;;;;;;;6.72;2.90;;;19.00;99.90;;;;;;4216791;28;20040;-84
2023/07/16 07:25:25;;;;;;;9.85;2.58;;;19.20;99.90;;;;;;4214702;28;20446;-84
2023/07/16 07:27:26;;;;;;;12.38;2.85;;;19.20;99.90;;;;;;4216532;28;20526;-84
2023/07/16 07:29:27;;;;;;;9.02;3.67;;;19.20;99.90;;;;;;4216159;28;20044;-84
2023/07/16 07:31:28;;;;;;;10.75;3.30;;;19.30;99.90;;;;;;4215118;28;20048;-84
2023/07/16 07:33:28;;;;;;;5.13;2.72;;;19.30;99.90;;;;;;4216183;28;20047;-84
2023/07/16 07:35:29;;;;;;;8.07;2.60;;;19.30;99.90;;;;;;4216482;28;20400;-84
2023/07/16 07:37:31;;;;;;;9.50;3.05;;;19.10;99.90;;;;;;4216559;28;20142;-84
2023/07/16 07:39:32;;;;;;;6.75;2.75;;;19.00;99.90;;;;;;4216168;28;20086;-84
2023/07/16 07:41:33;;;;;;;9.30;2.92;;;18.70;99.90;;;;;;4216588;28;20119;-84
2023/07/16 07:43:34;;;;;;;7.18;3.00;;;18.50;99.90;;;;;;4216094;28;20487;-84
2023/07/16 07:45:35;;;;;;;9.52;3.38;;;18.40;99.90;;;;;;4216364;28;20044;-84
2023/07/16 07:47:35;;;;;;;7.93;3.05;;;17.90;99.90;;;;;;4215311;28;20044;-84
2023/07/16 07:49:36;;;;;;;9.07;3.25;;;18.50;99.90;;;;;;4215578;28;20469;-84
2023/07/16 07:51:37;;;;;;;8.45;2.72;;;18.70;99.90;;;;;;4217135;28;20123;-84
2023/07/16 07:53:38;;;;;;;6.40;3.10;;;18.80;99.90;;;;;;4215794;28;20432;-84
2023/07/16 07:55:39;;;;;;;6.47;2.78;;;18.80;99.90;;;;;;4215812;28;20047;-84
2023/07/16 07:57:40;;;;;;;7.55;3.13;;;18.80;99.90;;;;;;4215666;28;20122;-84
2023/07/16 07:59:40;;;;;;;8.73;3.42;;;18.80;99.90;;;;;;4216295;28;20040;-84
2023/07/16 08:01:42;;;;;;;9.57;3.10;;;18.70;99.90;;;;;;4215350;28;20043;-84
2023/07/16 08:03:43;;;;;;;8.88;2.45;;;18.70;99.90;;;;;;4216187;28;20051;-85
2023/07/16 08:05:43;;;;;;;10.48;3.03;;;18.60;99.90;;;;;;4215933;28;20484;-86
2023/07/16 08:07:45;;;;;;;9.27;3.15;;;18.60;99.90;;;;;;4215993;28;20051;-84
2023/07/16 08:09:47;;;;;;;6.75;2.65;;;18.70;99.90;;;;;;4215351;28;20035;-84
2023/07/16 08:11:47;;;;;;;8.65;2.90;;;18.70;99.90;;;;;;4215097;28;20047;-84
2023/07/16 08:13:49;;;;;;;9.70;3.55;;;18.90;99.90;;;;;;4215305;28;20051;-84
2023/07/16 08:15:50;;;;;;;10.00;3.17;;;19.20;99.90;;;;;;4215347;28;20123;-84
2023/07/16 08:17:50;;;;;;;6.88;2.70;;;19.20;99.90;;;;;;4214474;28;20497;-84
2023/07/16 08:19:51;;;;;;;7.50;3.22;;;19.10;99.90;;;;;;4215169;28;20404;-84
2023/07/16 08:21:52;;;;;;;8.32;3.10;;;19.00;99.90;;;;;;4215144;28;20067;-84
2023/07/16 08:23:52;;;;;;;10.27;3.05;;;19.10;99.90;;;;;;4215260;28;20507;-84
2023/07/16 08:25:53;;;;;;;10.52;3.42;;;19.10;99.90;;;;;;4215481;28;20043;-84
2023/07/16 08:27:54;;;;;;;8.70;2.65;;;19.00;99.90;;;;;;4215207;28;20257;-84
2023/07/16 08:29:54;;;;;;;8.15;3.08;;;18.90;99.90;;;;;;4215088;28;20051;-83
2023/07/16 08:31:55;;;;;;;7.80;3.15;;;18.90;99.90;;;;;;4215197;28;20044;-83
2023/07/16 08:33:56;;;;;;;4.75;2.38;;;18.80;99.90;;;;;;4215434;28;20075;-84
2023/07/16 08:35:57;;;;;;;9.90;3.22;;;;;;;;;;4215650;28;20097;-84
2023/07/16 08:37:58;;;;;;;10.13;2.63;;;;;;;;;;4214975;28;20119;-84
2023/07/16 08:39:59;;;;;;;8.73;3.00;;;;;;;;;;4215692;28;20066;-84
2023/07/16 08:42:00;;;;;;;14.05;3.22;;;;;;;;;;4216036;28;20036;-84
2023/07/16 08:44:01;;;;;;;10.05;3.22;;;;;;;;;;4215154;28;20044;-84
2023/07/16 08:46:02;;;;;;;9.65;3.78;;;18.40;99.90;;;;;;4213964;28;20043;-84
2023/07/16 08:48:03;;;;;;;6.45;3.33;;;18.20;99.90;;;;;;4214883;28;20404;-84
2023/07/16 08:50:04;;;;;;;9.00;3.35;;;18.30;99.90;;;;;;4214387;28;20051;-84
2023/07/16 08:52:06;;;;;;;12.25;3.70;;;18.50;99.90;;;;;;4214281;28;20048;-83
2023/07/16 08:54:07;;;;;;;8.23;3.22;;;18.50;99.90;;;;;;4215007;28;20507;-83
2023/07/16 08:56:08;;;;;;;12.50;3.40;;;18.70;99.90;;;;;;4214543;28;20052;-83
2023/07/16 08:58:09;;;;;;;10.15;3.47;;;18.90;99.90;;;;;;4214982;28;20586;-84
2023/07/16 09:00:11;;;;;;;9.93;3.10;;;19.20;99.90;;;;;;4214649;28;20051;-84
2023/07/16 09:02:12;;;;;;;6.60;2.83;;;19.50;99.90;;;;;;4214152;28;20040;-84
2023/07/16 09:04:13;;;;;;;14.98;3.60;;;19.80;99.90;;;;;;4214508;28;20076;-84
2023/07/16 09:06:14;;;;;;;9.15;3.35;;;20.10;99.90;;;;;;4214332;28;20053;-84
2023/07/16 09:08:15;;;;;;;8.65;3.10;;;20.40;99.90;;;;;;4214789;28;20040;-84
2023/07/16 09:10:16;;;;;;;7.30;2.88;;;20.60;99.90;;;;;;4214013;28;20139;-84
2023/07/16 09:12:17;;;;;;;10.63;3.20;;;20.90;99.90;;;;;;4215217;28;20044;-84
2023/07/16 09:14:20;;;;;;;11.20;3.45;;;20.90;99.90;;;;;;4217665;28;20040;-84
2023/07/16 09:16:21;;;;;;;10.50;3.45;;;21.00;99.90;;;;;;4218250;28;20032;-84
2023/07/16 09:18:24;;;;;;;7.40;3.30;;;20.90;99.90;;;;;;4218199;28;20105;-84
2023/07/16 09:20:30;;;;;;;13.40;2.75;;;21.00;99.90;;;;;;4218241;28;20076;-84
2023/07/16 09:22:31;;;;;;;10.55;2.50;;;21.00;99.90;;;;;;4218535;28;20039;-84
2023/07/16 09:24:32;;;;;;;9.10;2.55;;;21.00;99.90;;;;;;4217935;28;20067;-84
2023/07/16 09:26:32;;;;;;;6.35;2.35;;;21.00;99.90;;;;;;4218855;28;20043;-84
2023/07/16 09:28:33;;;;;;;10.13;3.10;;;21.10;99.90;;;;;;4217914;28;20059;-84
2023/07/16 09:30:35;;;;;;;8.00;2.85;;;21.00;99.90;;;;;;4217939;28;20479;-84
2023/07/16 09:32:39;;;;;;;11.35;2.70;;;21.00;99.90;;;;;;4217774;28;20074;-84
2023/07/16 09:34:40;;;;;;;12.30;2.95;;;20.80;99.90;;;;;;4218335;28;20169;-84
2023/07/16 09:36:40;;;;;;;12.30;2.80;;;20.60;99.90;;;;;;4218769;28;20131;-84
2023/07/16 09:38:41;;;;;;;7.28;3.00;;;20.60;99.90;;;;;;4218441;28;20410;-84
2023/07/16 09:40:45;;;;;;;7.57;3.05;;;20.60;99.90;;;;;;4218711;28;20043;-83
2023/07/16 09:42:48;;;;;;;7.85;2.72;;;20.60;99.90;;;;;;4218125;28;20051;-84
2023/07/16 09:44:51;;;;;;;10.88;3.13;;;20.60;99.90;;;;;;4218590;28;20411;-83
2023/07/16 09:46:52;;;;;;;8.88;2.80;;;20.90;99.90;;;;;;4218056;28;20511;-84
2023/07/16 09:48:52;;;;;;;8.13;2.83;;;21.10;99.90;;;;;;4217862;28;20044;-84
2023/07/16 09:50:54;;;;;;;7.65;2.85;;;21.30;99.90;;;;;;4218847;28;20036;-83
2023/07/16 09:52:56;;;;;;;8.00;3.28;;;21.40;99.90;;;;;;4216968;28;20052;-83
2023/07/16 09:54:59;;;;;;;7.93;2.60;;;21.40;99.90;;;;;;4234101;28;20061;-84
2023/07/16 09:57:01;;;;;;;7.22;2.25;;;21.40;99.90;;;;;;4218067;28;20044;-84
2023/07/16 09:59:05;;;;;;;7.35;3.38;;;21.50;99.90;;;;;;4217887;28;20052;-84
2023/07/16 10:01:06;;;;;;;8.48;2.40;;;21.40;99.90;;;;;;4217094;28;20408;-83
2023/07/16 10:03:08;;;;;;;8.90;2.70;;;21.20;99.90;;;;;;4217932;28;20104;-83
2023/07/16 10:05:17;;;;;;;9.50;3.00;;;21.00;99.90;;;;;;4218334;28;20055;-83
2023/07/16 10:07:23;;;;;;;10.70;3.03;;;20.90;99.90;;;;;;4217960;28;20048;-83
2023/07/16 10:09:38;;;;;;;8.50;3.63;;;20.90;99.90;;;;;;4216886;28;20043;-84
2023/07/16 10:11:42;;;;;;;7.60;2.78;;;21.30;99.90;;;;;;4218580;28;20500;-84
2023/07/16 10:13:42;;;;;;;7.05;3.63;;;21.50;99.90;;;;;;4217574;28;20488;-84
2023/07/16 10:16:01;;;;;;;7.53;2.83;;;21.70;99.90;;;;;;4217612;28;20092;-84
2023/07/16 10:18:02;;;;;;;6.80;2.95;;;21.70;99.90;;;;;;4216390;28;20047;-84
2023/07/16 10:20:10;;;;;;;8.52;2.60;;;21.50;99.90;;;;;;4217473;28;20484;-84
2023/07/16 10:22:10;;;;;;;11.65;3.17;;;21.40;99.80;;;;;;4217462;28;20040;-84
2023/07/16 10:24:18;;;;;;;5.78;2.92;;;21.40;99.90;;;;;;4216817;28;20105;-84
2023/07/16 10:26:19;;;;;;;9.02;2.65;;;21.30;99.90;;;;;;4216680;28;20075;-84
2023/07/16 10:28:19;;;;;;;7.90;3.38;;;21.20;99.90;;;;;;4217160;28;20092;-84
2023/07/16 10:30:22;;;;;;;7.20;2.70;;;21.20;99.90;;;;;;4216950;28;20055;-84
2023/07/16 10:32:27;;;;;;;8.85;2.78;;;21.30;99.90;;;;;;4216925;28;20093;-84
2023/07/16 10:34:29;;;;;;;7.53;2.67;;;21.40;99.90;;;;;;4216790;28;20044;-84
2023/07/16 10:36:29;;;;;;;7.05;3.05;;;21.50;99.90;;;;;;4216680;28;20040;-85
2023/07/16 10:38:39;;;;;;;6.95;2.70;;;21.80;99.90;;;;;;4216736;28;20528;-84
2023/07/16 10:40:42;;;;;;;5.80;2.85;;;21.70;99.90;;;;;;4215793;28;20115;-84
2023/07/16 10:42:48;;;;;;;10.15;3.28;;;21.50;99.90;;;;;;4216513;28;20044;-84
2023/07/16 10:45:05;;;;;;;7.07;2.70;;;21.40;99.90;;;;;;4216819;28;20047;-83